logo meteosicilia

Diretta Meteo Ronchi Dei Legionari, Italiadomenica 14 aprile ore 04:20

Mappa
Sereno 13 °C Sereno 24 Ore: T.min 12 T.max 29
Ponente Nord Km/h 1.8 Punto di rugiada: 12 °C Umidità: 93% Visibilità: 10 Km
Il sole sorge alle: 06:19 Il sole tramonta alle: 19:53
14 Aprile 2024 04:20 tempo osservato: Sereno Sereno 13 93 1024 vento: Nord N 1.8
14 Aprile 2024 03:50 tempo osservato: Sereno Sereno 13 93 1024 vento: Nord N 3.7
14 Aprile 2024 03:20 tempo osservato: Sereno Sereno 14 87 1024 vento: Nord N 1.8
14 Aprile 2024 02:50 tempo osservato: Sereno Sereno 13 93 1024 vento: Nord N 1.8
14 Aprile 2024 02:20 tempo osservato: Sereno Sereno 14 93 1024 vento: Nord N 3.7
14 Aprile 2024 01:50 tempo osservato: Sereno Sereno 14 93 1024 vento: Nord N 1.8
14 Aprile 2024 01:20 tempo osservato: Sereno Sereno 14 93 1024 vento: Nord N 1.8
14 Aprile 2024 00:50 tempo osservato: Sereno Sereno 15 87 1024 vento: Nord N 3.7
14 Aprile 2024 00:20 tempo osservato: Sereno Sereno 16 77 1024 vento: Nord N 5.5
13 Aprile 2024 23:50 tempo osservato: Sereno Sereno 15 82 1025 vento: Nord N 3.7
13 Aprile 2024 23:20 tempo osservato: Sereno Sereno 16 82 1025 vento: Nord N 3.7
13 Aprile 2024 22:50 tempo osservato: Sereno Sereno 18 67 1025 vento: Nord N 5.5
13 Aprile 2024 22:20 tempo osservato: Sereno Sereno 17 72 1025 vento: Nord E/SE 9.3
13 Aprile 2024 21:50 tempo osservato: Sereno Sereno 18 67 1025 vento: Nord E/SE 9.3
13 Aprile 2024 21:20 tempo osservato: Sereno Sereno 18 72 1025 vento: Nord SE 11.1
13 Aprile 2024 20:50 tempo osservato: Sereno Sereno 18 77 1024 vento: Nord SE 9.3
13 Aprile 2024 20:20 tempo osservato: Sereno Sereno 19 72 1024 vento: Nord S/SE 9.3
13 Aprile 2024 19:50 tempo osservato: Sereno Sereno 19 72 1024 vento: Nord S/SE 11.1
13 Aprile 2024 19:20 tempo osservato: Sereno Sereno 20 72 1024 vento: Nord S/SE 11.1
13 Aprile 2024 18:50 tempo osservato: Sereno Sereno 21 68 1024 vento: Nord SE 13
13 Aprile 2024 18:20 tempo osservato: Sereno Sereno 22 64 1024 vento: Nord E/SE 14.8
13 Aprile 2024 17:50 tempo osservato: Sereno Sereno 27 44 1024 vento: Nord S/SO 9.3
13 Aprile 2024 17:20 tempo osservato: Sereno Sereno 27 32 1024 vento: Nord O/SO 14.8
13 Aprile 2024 16:50 tempo osservato: Sereno Sereno 28 34 1024 vento: Nord O/SO 14.8
13 Aprile 2024 16:20 tempo osservato: Sereno Sereno 28 32 1024 vento: Nord O/SO 14.8
13 Aprile 2024 15:50 tempo osservato: Sereno Sereno 28 34 1024 vento: Nord O/SO 13
13 Aprile 2024 15:20 tempo osservato: Sereno Sereno 28 37 1025 vento: Nord O/SO 11.1
13 Aprile 2024 14:50 tempo osservato: Sereno Sereno 28 37 1025 vento: Nord N 11.1
13 Aprile 2024 14:20 tempo osservato: Sereno Sereno 29 35 1025 vento: Nord SO 7.4
13 Aprile 2024 13:50 tempo osservato: Sereno Sereno 28 37 1026 vento: Nord NO 9.3
13 Aprile 2024 13:20 tempo osservato: Sereno Sereno 28 32 1026 vento: Nord SO 9.3
13 Aprile 2024 12:50 tempo osservato: Sereno Sereno 28 34 1026 vento: Nord N 7.4
13 Aprile 2024 12:20 tempo osservato: Sereno Sereno 28 37 1026 vento: Nord S 7.4
13 Aprile 2024 11:50 tempo osservato: Sereno Sereno 27 39 1027 vento: Nord N 3.7
13 Aprile 2024 11:20 tempo osservato: Sereno Sereno 26 44 1027 vento: Nord N 7.4
13 Aprile 2024 10:50 tempo osservato: Sereno Sereno 25 47 1027 vento: Nord N 11.1
13 Aprile 2024 10:20 tempo osservato: Sereno Sereno 23 56 1027 vento: Nord N/NE 13
13 Aprile 2024 09:50 tempo osservato: Sereno Sereno 22 56 1027 vento: Nord N/NE 13
13 Aprile 2024 09:20 tempo osservato: Sereno Sereno 20 64 1027 vento: Nord N/NE 13
13 Aprile 2024 08:50 tempo osservato: Sereno Sereno 18 67 1027 vento: Nord N/NE 9.3
13 Aprile 2024 08:20 tempo osservato: Sereno Sereno 18 72 1027 vento: Nord N 5.5
13 Aprile 2024 07:50 tempo osservato: Sereno Sereno 17 72 1027 vento: Nord N 3.7
13 Aprile 2024 07:20 tempo osservato: Sereno Sereno 15 76 1027 vento: Nord N/NE 9.3
13 Aprile 2024 06:50 tempo osservato: Sereno Sereno 13 81 1027 vento: Nord N/NE 11.1
13 Aprile 2024 06:20 tempo osservato: Sereno Sereno 12 87 1027 vento: Nord N/NE 7.4
13 Aprile 2024 05:50 tempo osservato: Sereno Sereno 12 87 1026 vento: Nord N 3.7
13 Aprile 2024 05:20 tempo osservato: Sereno Sereno 13 81 1026 vento: Nord N 3.7
13 Aprile 2024 04:50 tempo osservato: Sereno Sereno 13 87 1026 vento: Nord N 5.5